Latest Coastal Weather Observations for Mornington Island Airport

IDQ60701

Issued at 12:51 pm EST Tuesday 23 December 2014 (issued every 10 minutes, with the page automatically refreshed every 10 minutes)

About coastal observations | Map of coastal stations | Coastal observations for QLD | Marine services | Other Formats
Station Details ID: 029182 Name: MORNINGTON ISLAND AIRPORT Lat: -16.66 Lon: 139.17 Height: 9.0 m
Data from the previous 72 hours. | See also: Recent months at Mornington Island Airport
Date/Time
EST
Temp

°C
Wind Pressure Rain
since 9am
mm
Weather Cloud Vis
km
Sea
Height
m
Swell
Dir
 
Speed
knots
Gust
knots
hPa Trend Height
m
Period
s
Dir
23/12:30pm 25.3 N 8 11 1010.9 - 8.2 - - - - - - -
23/12:00pm 26.4 NW 15 19 1011.1 - 8.2 Recent precip. - - - - - -
23/11:30am 26.3 WNW 8 11 1011.2 - 8.2 - - - - - - -
23/11:00am 26.3 SSW 6 9 1011.4 - 1.6 - - - - - - -
23/10:30am 26.9 N 12 21 1010.5 - 0.0 - - - - - - -
23/10:29am 27.1 N 11 21 1010.5 - 0.0 - - - - - - -
23/10:00am 32.3 NE 7 11 1010.9 - 0.0 - - - - - - -
23/09:30am 32.3 ENE 7 9 1010.4 - 0.0 - - - - - - -
23/09:00am 31.1 ESE 6 9 1010.6 - 31.8 - - - - - - -
23/08:30am 30.4 SE 5 7 1010.2 - 31.8 - - - - - - -
23/08:00am 30.0 SE 5 6 1010.1 - 31.8 - - - - - - -
23/07:30am 29.3 ESE 5 8 1009.8 - 31.8 - - - - - - -
23/07:00am 28.4 SSE 3 4 1009.3 - 31.8 - - - - - - -
23/06:30am 27.8 S 3 5 1009.0 - 31.8 - - - - - - -
23/06:00am 28.5 SSW 3 5 1008.6 - 31.8 - - - - - - -
23/05:30am 29.1 WSW 5 7 1008.0 - 31.8 - - - - - - -
23/05:00am 29.0 W 5 7 1007.5 - 31.8 - - - - - - -
23/04:30am 28.3 W 4 5 1007.1 - 31.8 - - - - - - -
23/04:00am 28.1 WNW 2 4 1006.9 - 31.8 - - - - - - -
23/03:30am 28.7 WNW 4 5 1006.5 - 31.8 - - - - - - -
23/03:00am 29.2 WNW 7 8 1006.7 - 31.8 - - - - - - -
23/02:30am 28.9 WNW 5 7 1007.0 - 31.8 - - - - - - -
23/02:00am 28.9 WNW 5 7 1007.3 - 31.8 - - - - - - -
23/01:30am 28.8 NW 7 8 1007.5 - 31.8 - - - - - - -
23/01:00am 28.8 NW 7 9 1008.0 - 31.8 - - - - - - -
23/12:30am 27.3 NW 3 5 1008.5 - 31.8 - - - - - - -
23/12:00am 26.9 CALM 0 0 1008.7 - 31.8 - - - - - - -
 
Date/Time
EST
Temp

°C
Wind Pressure Rain
since 9am
mm
Weather Cloud Vis
km
Sea
Height
m
Swell
Dir
 
Speed
knots
Gust
knots
hPa Trend Height
m
Period
s
Dir
22/11:30pm 27.3 ENE 3 4 1009.0 - 31.8 - - - - - - -
22/11:00pm 27.4 CALM 0 0 1009.0 - 31.8 - - - - - - -
22/10:30pm 27.3 E 1 3 1009.2 - 31.8 - - - - - - -
22/10:00pm 27.4 E 3 4 1008.8 - 31.8 - - - - - - -
22/09:30pm 27.3 E 3 5 1008.6 - 31.8 - - - - - - -
22/09:00pm 27.9 ENE 4 5 1008.1 - 31.8 - - - - - - -
22/08:30pm 28.0 CALM 0 0 1007.7 - 31.8 - - - - - - -
22/08:00pm 28.3 NE 3 4 1007.5 - 31.8 - - - - - - -
22/07:30pm 28.5 NNE 3 4 1007.7 - 31.8 - - - - - - -
22/07:00pm 28.9 N 3 4 1007.6 - 31.8 - - - - - - -
22/06:30pm 29.1 NNE 5 7 1007.4 - 31.8 - - - - - - -
22/06:00pm 29.4 N 6 9 1007.7 - 31.8 - - - - - - -
22/05:30pm 29.9 N 7 10 1007.5 - 31.8 - - - - - - -
22/05:00pm 30.0 N 8 10 1007.3 - 31.8 - - - - - - -
22/04:30pm 29.8 NNE 7 10 1007.6 - 31.8 - - - - - - -
22/04:00pm 29.7 N 6 8 1007.7 - 31.8 - - - - - - -
22/03:30pm 29.8 N 5 7 1008.6 - 31.8 - - - - - - -
22/03:00pm 30.0 NNE 5 7 1008.9 - 31.8 - - - - - - -
22/02:30pm 29.8 NNE 4 7 1009.0 - 31.8 - - - - - - -
22/02:00pm 29.6 NNE 6 8 1009.1 - 31.8 - - - - - - -
22/01:30pm 27.4 N 6 8 1009.8 - 31.8 - - - - - - -
22/01:00pm 26.4 N 5 7 1010.4 - 31.8 - - - - - - -
22/12:30pm 25.7 E 4 6 1010.4 - 31.6 - - - - - - -
22/12:00pm 25.3 NNE 5 6 1010.9 - 31.0 Rain - - - - - -
22/11:30am 25.0 NNE 4 5 1011.5 - 29.6 - - - - - - -
22/11:00am 25.2 NNW 4 5 1012.1 - 27.6 - - - - - - -
22/10:30am 24.9 W 3 4 1012.3 - 26.2 - - - - - - -
22/10:00am 24.5 NE 4 6 1012.5 - 25.2 - - - - - - -
22/09:30am 24.3 E 12 15 1012.3 - 21.0 - - - - - - -
22/09:00am 25.0 NNW 14 21 1011.8 - 0.2 Rain - - - - - -
22/08:30am 29.5 S 6 10 1010.5 - 0.0 - - - - - - -
22/08:00am 29.1 SSE 5 9 1009.7 - 0.0 - - - - - - -
22/07:30am 28.8 S 3 5 1009.8 - 0.0 - - - - - - -
22/07:00am 28.7 S 3 4 1009.3 - 0.0 - - - - - - -
22/06:30am 28.5 SSE 3 5 1008.9 - 0.0 - - - - - - -
22/06:00am 28.6 S 4 7 1008.1 - 0.0 - - - - - - -
22/05:30am 30.2 WNW 6 8 1007.4 - 0.0 - - - - - - -
22/05:00am 30.0 WNW 5 6 1007.1 - 0.0 - - - - - - -
22/04:30am 30.0 NNW 5 7 1007.0 - 0.0 - - - - - - -
22/04:00am 30.2 NW 7 9 1006.8 - 0.0 - - - - - - -
22/03:30am 30.2 NW 8 9 1006.9 - 0.0 - - - - - - -
22/03:00am 30.2 NW 7 9 1007.2 - 0.0 - - - - - - -
22/02:30am 30.1 NNW 6 9 1007.2 - 0.0 - - - - - - -
22/02:00am 30.0 N 6 9 1007.3 - 0.0 - - - - - - -
22/01:30am 30.0 N 6 8 1007.3 - 0.0 - - - - - - -
22/01:00am 29.9 N 5 7 1007.3 - 0.0 - - - - - - -
22/12:30am 30.0 N 6 9 1007.5 - 0.0 - - - - - - -
22/12:00am 29.9 N 6 9 1007.7 - 0.0 - - - - - - -
 
Date/Time
EST
Temp

°C
Wind Pressure Rain
since 9am
mm
Weather Cloud Vis
km
Sea
Height
m
Swell
Dir
 
Speed
knots
Gust
knots
hPa Trend Height
m
Period
s
Dir
21/11:30pm 29.6 N 6 9 1008.0 - 0.0 - - - - - - -
21/11:00pm 29.5 N 7 8 1008.3 - 0.0 - - - - - - -
21/10:30pm 29.5 NNE 5 6 1008.3 - 0.0 - - - - - - -
21/10:00pm 29.6 NE 5 7 1008.1 - 0.0 - - - - - - -
21/09:30pm 29.8 NNE 4 5 1008.0 - 0.0 - - - - - - -
21/09:00pm 30.1 CALM 0 0 1008.1 - 0.0 - - - - - - -
21/08:30pm 30.2 NNE 4 6 1008.0 - 0.0 - - - - - - -
21/08:00pm 30.3 NNE 1 3 1008.6 - 0.0 - - - - - - -
21/07:30pm 30.4 NNE 4 5 1008.2 - 0.0 - - - - - - -
21/07:00pm 30.7 N 6 8 1007.8 - 0.0 - - - - - - -
21/06:30pm 31.0 N 8 10 1007.8 - 0.0 - - - - - - -
21/06:00pm 31.1 N 11 15 1007.7 - 0.0 - - - - - - -
21/05:30pm 32.0 N 13 18 1006.8 - 0.0 - - - - - - -
21/05:00pm 31.6 N 13 17 1006.7 - 0.0 - - - - - - -
21/04:30pm 31.9 N 13 19 1006.8 - 0.0 - - - - - - -
21/04:00pm 31.7 N 12 17 1007.2 - 0.0 - - - - - - -
21/03:30pm 32.9 N 10 15 1007.1 - 0.0 - - - - - - -
21/03:00pm 33.4 N 10 14 1007.3 - 0.0 - - - - - - -
21/02:30pm 33.0 N 9 13 1008.0 - 0.0 - - - - - - -
21/02:00pm 31.0 WSW 2 6 1008.5 - 0.0 - - - - - - -
21/01:30pm 31.8 NNW 8 11 1009.3 - 0.0 - - - - - - -
21/01:00pm 32.8 NNW 11 15 1009.4 - 0.0 - - - - - - -
21/12:30pm 32.9 NNW 13 18 1009.3 - 0.0 - - - - - - -
21/12:00pm 34.0 N 12 17 1009.7 - 0.0 - - - - - - -
21/11:30am 33.6 NNW 12 17 1009.9 - 0.0 - - - - - - -
21/11:00am 33.4 NNW 12 16 1010.0 - 0.0 - - - - - - -
21/10:30am 33.4 NNW 11 15 1010.2 - 0.0 - - - - - - -
21/10:00am 33.2 NW 12 15 1010.2 - 0.0 - - - - - - -
21/09:30am 32.9 NNW 12 16 1009.9 - 0.0 - - - - - - -
21/09:00am 32.5 NW 11 14 1009.5 - 0.0 - - - - - - -
21/08:30am 31.9 NNW 9 13 1009.1 - 0.0 - - - - - - -
21/08:00am 31.5 NNW 9 11 1009.0 - 0.0 - - - - - - -
21/07:30am 31.4 NNW 8 11 1009.0 - 0.0 - - - - - - -
21/07:00am 30.8 NNW 7 10 1008.8 - 0.0 - - - - - - -
21/06:30am 29.3 NE 4 5 1008.3 - 0.0 - - - - - - -
21/06:00am 28.9 NE 4 5 1007.8 - 0.0 - - - - - - -
21/05:30am 28.9 NE 3 4 1007.6 - 0.0 - - - - - - -
21/05:00am 28.9 ENE 4 5 1007.3 - 0.0 - - - - - - -
21/04:30am 29.0 ENE 4 5 1007.2 - 0.0 - - - - - - -
21/04:00am 29.1 ENE 5 6 1007.1 - 0.0 - - - - - - -
21/03:30am 28.9 ENE 5 6 1007.1 - 0.0 - - - - - - -
21/03:00am 28.8 NE 5 6 1006.9 - 0.0 - - - - - - -
21/02:30am 29.2 E 6 8 1007.5 - 0.0 - - - - - - -
21/02:00am 29.3 NNE 2 3 1007.5 - 0.0 - - - - - - -
21/01:30am 30.2 NW 5 6 1007.6 - 0.0 - - - - - - -
21/01:00am 30.3 NNW 7 9 1007.8 - 0.0 - - - - - - -
21/12:30am 30.4 NNW 8 10 1008.2 - 0.0 - - - - - - -
21/12:00am 30.1 NNW 7 11 1008.1 - 0.0 - - - - - - -
 
Date/Time
EST
Temp

°C
Wind Pressure Rain
since 9am
mm
Weather Cloud Vis
km
Sea
Height
m
Swell
Dir
 
Speed
knots
Gust
knots
hPa Trend Height
m
Period
s
Dir
20/11:30pm 30.4 NNW 8 11 1008.1 - 0.0 - - - - - - -
20/11:00pm 30.5 NNW 8 11 1008.0 - 0.0 - - - - - - -
20/10:30pm 30.7 NNW 10 13 1007.8 - 0.0 - - - - - - -
20/10:00pm 30.5 NNW 8 11 1007.4 - 0.0 - - - - - - -
20/09:30pm 30.6 NNW 8 11 1007.1 - 0.0 - - - - - - -
20/09:00pm 30.2 N 7 9 1006.7 - 0.0 - - - - - - -
20/08:30pm 30.1 N 7 10 1006.8 - 0.0 - - - - - - -
20/08:00pm 30.1 N 7 10 1006.6 - 0.0 - - - - - - -
20/07:30pm 30.3 N 10 14 1006.7 - 0.0 - - - - - - -
20/07:00pm 30.6 N 11 16 1006.5 - 0.0 - - - - - - -
20/06:30pm 31.2 N 11 15 1006.1 - 0.0 - - - - - - -
20/06:00pm 32.2 N 12 17 1006.0 - 0.0 - - - - - - -
20/05:30pm 32.2 N 12 16 1005.7 - 0.0 - - - - - - -
20/05:00pm 33.1 N 12 16 1005.8 - 0.0 - - - - - - -
20/04:30pm 33.3 N 13 17 1005.6 - 0.0 - - - - - - -
20/04:00pm 33.4 N 13 16 1006.0 - 0.0 - - - - - - -
20/03:30pm 34.0 NNW 13 17 1006.0 - 0.0 - - - - - - -
20/03:00pm 34.0 N 11 15 1006.2 - 0.0 - - - - - - -
20/02:30pm 34.3 NNE 10 15 1006.9 - 0.0 - - - - - - -
20/02:00pm 32.3 NE 13 20 1007.8 - 0.0 - - - - - - -
20/01:45pm 33.4 NNW 11 23 1007.9 - 0.0 - - - - - - -
20/01:30pm 34.3 NW 9 11 1007.6 - 0.0 - - - - - - -
20/01:00pm 34.3 WNW 9 11 1008.1 - 0.0 - - - - - - -

Other Formats:

Comma delimited format used in spreadsheet applications
http://www.bom.gov.au/fwo/IDQ60701/IDQ60701.94254.axf

JavaScript Object Notation format (JSON) in row-major order
http://www.bom.gov.au/fwo/IDQ60701/IDQ60701.94254.json